Wetterdaten: Samstag, 27.12.2014
Datum Zeit Temp. A. Feuchte A. Luftdruck Regen Wind Richtung Richtung Sonnenschein ET UV Solar Taupunkt Windchill Windben Empfang
27.12.2014 00:00 -1,4 C 80 % 1023,7 hPa 0,0 l/m 0,0 km/h (0 Bft) S-SW 200 0 min 0,000 mm 0,0 UV-I 0 W/m -4,4 C -1,4 C 0,0 km/h (0 Bft) 0,00 %
27.12.2014 01:00 -2,2 C 78 % 1023,1 hPa 0,0 l/m 0,0 km/h (0 Bft) S-SW 200 0 min 0,000 mm 0,0 UV-I 0 W/m -5,5 C -2,2 C 0,0 km/h (0 Bft) 0,00 %
27.12.2014 02:00 -2,3 C 78 % 1022,5 hPa 0,0 l/m 0,0 km/h (0 Bft) S 180 0 min 0,000 mm 0,0 UV-I 0 W/m -5,6 C -2,3 C 0,0 km/h (0 Bft) 0,00 %
27.12.2014 03:00 -4,0 C 75 % 1021,6 hPa 0,0 l/m 0,0 km/h (0 Bft) S-SW 210 0 min 0,000 mm 0,0 UV-I 0 W/m -7,8 C -4,0 C 0,0 km/h (0 Bft) 0,00 %
27.12.2014 04:00 -5,6 C 77 % 1020,9 hPa 0,0 l/m 0,0 km/h (0 Bft) S 180 0 min 0,000 mm 0,0 UV-I 0 W/m -9,0 C -5,6 C 0,0 km/h (0 Bft) 0,00 %
27.12.2014 05:00 -5,5 C 80 % 1019,5 hPa 0,0 l/m 0,0 km/h (0 Bft) S 180 0 min 0,000 mm 0,0 UV-I 0 W/m -8,4 C -5,5 C 0,0 km/h (0 Bft) 0,00 %
27.12.2014 06:00 -5,9 C 80 % 1017,8 hPa 0,0 l/m 0,0 km/h (0 Bft) S-SW 210 0 min 0,000 mm 0,0 UV-I 0 W/m -8,8 C -5,9 C 0,0 km/h (0 Bft) 0,00 %
27.12.2014 07:00 -7,2 C 74 % 1016,2 hPa 0,0 l/m 0,0 km/h (0 Bft) O 90 0 min 0,000 mm 0,0 UV-I 0 W/m -11,0 C -7,2 C 0,0 km/h (0 Bft) 0,00 %
27.12.2014 08:00 -6,7 C 78 % 1014,4 hPa 0,0 l/m 0,0 km/h (0 Bft) W-SW 250 0 min 0,000 mm 0,0 UV-I 0 W/m -9,9 C -6,7 C 0,0 km/h (0 Bft) 0,00 %
27.12.2014 09:00 -5,1 C 77 % 1012,0 hPa 0,0 l/m 0,0 km/h (0 Bft) O-SO 120 0 min 0,000 mm 0,0 UV-I 33 W/m -8,5 C -5,1 C 0,0 km/h (0 Bft) 0,00 %
27.12.2014 10:00 -4,0 C 77 % 1008,9 hPa 0,0 l/m 0,0 km/h (0 Bft) O 90 0 min 0,000 mm 0,0 UV-I 54 W/m -7,4 C -4,0 C 0,0 km/h (0 Bft) 0,00 %
27.12.2014 11:00 -3,8 C 74 % 1007,1 hPa 0,0 l/m 0,0 km/h (0 Bft) O 90 0 min 0,000 mm 0,0 UV-I 64 W/m -7,7 C -3,8 C 0,0 km/h (0 Bft) 0,00 %
27.12.2014 12:00 -3,5 C 65 % 1004,8 hPa 0,0 l/m 0,0 km/h (0 Bft) NO 50 0 min 0,000 mm 0,0 UV-I 75 W/m -9,1 C -3,5 C 0,0 km/h (0 Bft) 0,00 %
27.12.2014 13:00 -3,4 C 63 % 1003,4 hPa 0,0 l/m 0,0 km/h (0 Bft) S-SO 150 0 min 0,000 mm 1,0 UV-I 57 W/m -9,4 C -3,4 C 0,0 km/h (0 Bft) 0,00 %
27.12.2014 14:00 -3,1 C 63 % 1002,3 hPa 0,0 l/m 1,4 km/h (1 Bft) S-SO 150 0 min 0,000 mm 1,0 UV-I 42 W/m -9,1 C -3,1 C 4,0 km/h (1 Bft) 0,00 %
27.12.2014 15:00 -3,0 C 64 % 1001,1 hPa 0,0 l/m 5,5 km/h (1 Bft) O 90 0 min 0,000 mm 1,0 UV-I 26 W/m -8,8 C -3,0 C 7,9 km/h (2 Bft) 0,00 %
27.12.2014 16:00 -3,0 C 65 % 1000,5 hPa 0,0 l/m 0,6 km/h (0 Bft) NO 50 0 min 0,000 mm 0,0 UV-I 0 W/m -8,6 C -3,0 C 4,0 km/h (1 Bft) 0,00 %
27.12.2014 17:00 -3,4 C 70 % 1000,1 hPa 0,0 l/m 6,4 km/h (2 Bft) S-SO 150 0 min 0,000 mm 0,0 UV-I 0 W/m -8,1 C -3,3 C 7,9 km/h (2 Bft) 0,00 %
27.12.2014 18:00 -3,5 C 75 % 999,8 hPa 0,0 l/m 2,1 km/h (1 Bft) O-NO 60 0 min 0,000 mm 0,0 UV-I 0 W/m -7,3 C -3,5 C 4,0 km/h (1 Bft) 0,00 %
27.12.2014 19:00 -3,6 C 77 % 1000,2 hPa 0,0 l/m 0,0 km/h (0 Bft) O 90 0 min 0,000 mm 0,0 UV-I 0 W/m -7,0 C -3,6 C 0,0 km/h (0 Bft) 0,00 %
27.12.2014 20:00 -3,5 C 76 % 999,4 hPa 0,0 l/m 0,0 km/h (0 Bft) S 180 0 min 0,000 mm 0,0 UV-I 0 W/m -7,1 C -3,5 C 0,0 km/h (0 Bft) 0,00 %
27.12.2014 21:00 -3,4 C 76 % 1000,1 hPa 0,0 l/m 0,0 km/h (0 Bft) O 90 0 min 0,000 mm 0,0 UV-I 0 W/m -7,0 C -3,4 C 0,0 km/h (0 Bft) 0,00 %
27.12.2014 22:00 -3,3 C 75 % 1001,2 hPa 0,0 l/m 0,0 km/h (0 Bft) S 180 0 min 0,000 mm 0,0 UV-I 0 W/m -7,1 C -3,3 C 0,0 km/h (0 Bft) 0,00 %
27.12.2014 23:00 -3,5 C 76 % 1001,2 hPa 0,0 l/m 0,0 km/h (0 Bft) S 180 0 min 0,000 mm 0,0 UV-I 0 W/m -7,1 C -3,5 C 0,0 km/h (0 Bft) 0,00 %
_ Min-Zeit 07:00 13:00 20:00 - 00:00 - - - - - - 07:00 07:00 00:00 00:00
Minimum _ -7,2 C 63 % 999,4 hPa - 0,0 km/h (0 Bft) - - - - - - -11,0 C -7,2 C 0,0 km/h (0 Bft) 0,00 %
_ Max-Zeit 00:00 00:00 00:00 00:00 17:00 - - 00:00 00:00 13:00 12:00 00:00 00:00 15:00 00:00
Maximum _ -1,4 C 80 % 1023,7 hPa 0,0 l/m 6,4 km/h
S-SO (2 Bft)
- - 0 min 0,000 mm 1,0 UV-I 75 W/m -4,4 C -1,4 C 7,9 km/h
O (2 Bft)
0,00 %
Durchschnitt _ -4,0 C 74 % 1008,6 hPa #0,0 l/m 0,7 km/h (0 Bft) S-SO - #0 min. #0,000 mm 1,0 UV-I 50 W/m -8,1 C -4,0 C 1,2 km/h (1 Bft) 0,00 %